Time;durP1;ratioP1;P1;durP2;ratioP2;P2;SDS_P1;SDS_P2;PMS_P1;PMS_P2;Temp;Humidity;BMP_temperature;BMP_pressure;BME280_temperature;BME280_humidity;BME280_pressure;Samples;Min_cycle;Max_cycle;Signal;HPM_P1;HPM_P2
2022/10/20 00:01:02;;;;;;;1.47;1.37;;;;;;;8.85;74.39;102483.84;6281293;28;20287;-69
2022/10/20 00:04:23;;;;;;;1.43;1.33;;;;;;;8.83;74.85;102475.84;6287993;28;20835;-69
2022/10/20 00:07:44;;;;;;;2.37;1.10;;;;;;;8.84;75.18;102476.72;6286704;28;20231;-68
2022/10/20 00:11:07;;;;;;;1.20;1.13;;;;;;;8.91;74.38;102475.41;6279430;28;20223;-68
2022/10/20 00:14:28;;;;;;;1.40;1.30;;;;;;;8.78;74.38;102474.41;6285688;28;20231;-69
2022/10/20 00:17:49;;;;;;;2.50;1.73;;;;;;;8.85;74.68;102475.75;6280060;28;20616;-69
2022/10/20 00:21:12;;;;;;;2.87;1.87;;;;;;;8.95;74.58;102468.06;6282484;28;20553;-69
2022/10/20 00:24:33;;;;;;;1.10;1.10;;;;;;;8.96;74.17;102473.34;6284438;28;20260;-69
2022/10/20 00:27:56;;;;;;;1.67;1.03;;;;;;;8.78;75.01;102467.16;6286739;28;20238;-69
2022/10/20 00:31:18;;;;;;;1.47;1.20;;;;;;;8.81;75.21;102464.31;6281633;28;20227;-68
2022/10/20 00:34:39;;;;;;;1.40;1.30;;;;;;;8.84;74.70;102471.34;6293316;28;20238;-69
2022/10/20 00:38:00;;;;;;;1.67;1.57;;;;;;;8.70;74.34;102463.16;6285794;28;20235;-69
2022/10/20 00:41:21;;;;;;;2.50;1.27;;;;;;;8.69;75.13;102454.25;6272768;28;20219;-69
2022/10/20 00:44:53;;;;;;;1.13;1.00;;;;;;;8.75;75.58;102463.78;6276155;28;20231;-68
2022/10/20 00:48:17;;;;;;;0.90;0.90;;;;;;;8.74;74.78;102454.84;6287134;28;20226;-69
2022/10/20 00:51:38;;;;;;;0.70;0.70;;;;;;;8.70;74.87;102450.59;6270551;28;20231;-69
2022/10/20 00:55:00;;;;;;;4.13;1.27;;;;;;;8.61;76.04;102444.88;6272195;28;20242;-69
2022/10/20 00:58:21;;;;;;;2.00;1.60;;;;;;;8.72;75.66;102434.38;6280908;28;20314;-69
2022/10/20 01:01:44;;;;;;;1.10;1.00;;;;;;;8.74;75.19;102429.81;6285565;28;20679;-69
2022/10/20 01:05:06;;;;;;;1.67;1.13;;;;;;;8.71;75.47;102432.66;6281014;28;21040;-69
2022/10/20 01:08:27;;;;;;;1.10;1.00;;;;;;;8.72;75.13;102420.94;6286611;28;20235;-68
2022/10/20 01:11:58;;;;;;;1.20;1.10;;;;;;;8.70;75.92;102423.72;6280515;28;20238;-69
2022/10/20 01:15:27;;;;;;;0.97;0.83;;;;;;;8.71;75.68;102419.22;6283547;28;20226;-68
2022/10/20 01:19:00;;;;;;;0.73;0.70;;;;;;;8.67;75.06;102412.28;6285670;28;20226;-69
2022/10/20 01:22:44;;;;;;;2.23;0.93;;;;;;;8.61;76.25;102405.44;6259600;28;20239;-69
2022/10/20 01:26:52;;;;;;;2.17;1.40;;;;;;;8.61;76.09;102405.44;6283087;28;20231;-69
2022/10/20 01:30:18;;;;;;;0.97;0.93;;;;;;;8.61;75.69;102396.50;6283118;28;20345;-69
2022/10/20 01:33:43;;;;;;;1.57;0.90;;;;;;;8.60;76.20;102398.31;6281514;28;20647;-68
2022/10/20 01:37:09;;;;;;;2.87;2.67;;;;;;;8.53;75.53;102394.22;6284386;28;20227;-69
2022/10/20 01:40:34;;;;;;;1.70;1.03;;;;;;;8.61;75.53;102394.69;6283353;28;20231;-70
2022/10/20 01:43:57;;;;;;;1.57;1.20;;;;;;;8.52;76.02;102389.81;6280871;28;20226;-69
2022/10/20 01:47:22;;;;;;;2.23;2.10;;;;;;;8.47;76.95;102380.28;6277842;28;20225;-69
2022/10/20 01:50:45;;;;;;;2.00;1.63;;;;;;;8.40;76.47;102373.50;6286090;28;20227;-69
2022/10/20 01:54:06;;;;;;;0.53;0.53;;;;;;;8.41;76.24;102365.34;6285970;28;20227;-69
2022/10/20 01:57:42;;;;;;;1.30;1.03;;;;;;;8.37;76.82;102357.53;6292014;28;20227;-69
2022/10/20 02:01:13;;;;;;;2.20;1.53;;;;;;;8.30;77.05;102359.72;6277680;28;20235;-68
2022/10/20 02:04:54;;;;;;;1.30;1.10;;;;;;;8.32;77.05;102357.84;6292045;28;20267;-68
2022/10/20 02:08:22;;;;;;;0.80;0.80;;;;;;;8.26;77.18;102363.50;6285197;28;20230;-69
2022/10/20 02:11:50;;;;;;;1.40;0.87;;;;;;;8.23;77.39;102352.91;6285238;28;21889;-68
2022/10/20 02:15:14;;;;;;;2.37;1.10;;;;;;;8.23;77.18;102342.19;6277918;28;20247;-69
2022/10/20 02:18:41;;;;;;;0.87;0.87;;;;;;;8.17;77.15;102345.22;6283034;28;20574;-68
2022/10/20 02:22:05;;;;;;;2.40;0.90;;;;;;;8.13;77.78;102337.41;6288952;28;20218;-68
2022/10/20 02:25:28;;;;;;;1.10;1.00;;;;;;;8.14;77.05;102336.44;6280078;28;20230;-68
2022/10/20 02:28:54;;;;;;;1.17;0.90;;;;;;;8.12;77.29;102324.91;6282570;28;20226;-68
2022/10/20 02:32:18;;;;;;;0.70;0.70;;;;;;;8.11;77.49;102315.13;6281843;28;20242;-68
2022/10/20 02:35:48;;;;;;;1.57;1.10;;;;;;;8.03;77.78;102305.66;6284010;28;20326;-69
2022/10/20 02:39:10;;;;;;;2.67;1.10;;;;;;;7.98;77.15;102312.25;6287464;28;20226;-68
2022/10/20 02:42:31;;;;;;;0.70;0.70;;;;;;;7.75;78.34;102307.28;6281418;28;20226;-69
2022/10/20 02:45:52;;;;;;;1.23;1.13;;;;;;;7.88;78.02;102302.97;6283416;28;20227;-68
2022/10/20 02:49:13;;;;;;;1.87;1.23;;;;;;;7.84;78.89;102312.16;6284325;28;21185;-69
2022/10/20 02:52:35;;;;;;;1.97;1.87;;;;;;;7.92;78.70;102316.16;6285383;28;20511;-68
2022/10/20 02:55:57;;;;;;;4.20;2.33;;;;;;;7.90;78.58;102320.75;6275238;28;20219;-67
2022/10/20 02:59:18;;;;;;;1.07;1.07;;;;;;;7.81;78.72;102315.00;6287273;28;20222;-69
2022/10/20 03:02:39;;;;;;;1.30;1.20;;;;;;;7.82;79.14;102314.91;6280279;28;20574;-69
2022/10/20 03:06:07;;;;;;;1.17;1.07;;;;;;;7.66;79.29;102321.16;6280171;28;20230;-69
2022/10/20 03:09:28;;;;;;;1.67;1.30;;;;;;;7.67;79.24;102312.19;6285890;28;20725;-68
2022/10/20 03:12:50;;;;;;;4.30;1.30;;;;;;;7.59;79.65;102317.97;6286150;28;20227;-69
2022/10/20 03:16:11;;;;;;;1.00;1.00;;;;;;;7.64;79.05;102310.53;6289719;28;20615;-69
2022/10/20 03:19:32;;;;;;;2.17;1.87;;;;;;;7.67;79.68;102301.44;6294491;28;20713;-68
2022/10/20 03:22:53;;;;;;;1.23;1.07;;;;;;;7.71;79.08;102301.22;6278898;28;20230;-69
2022/10/20 03:26:14;;;;;;;1.97;1.37;;;;;;;7.65;79.68;102308.72;6278728;28;23138;-68
2022/10/20 03:29:36;;;;;;;13.77;10.03;;;;;;;7.67;79.35;102293.41;6284564;28;20219;-69
2022/10/20 03:32:57;;;;;;;12.77;8.57;;;;;;;7.67;79.47;102288.03;6289683;28;20231;-69
2022/10/20 03:36:19;;;;;;;2.90;2.23;;;;;;;7.65;79.44;102281.88;6291092;28;20318;-69
2022/10/20 03:39:39;;;;;;;3.17;1.43;;;;;;;7.53;79.01;102291.44;6287549;28;20230;-69
2022/10/20 03:43:00;;;;;;;1.97;1.40;;;;;;;7.55;79.46;102286.84;6295307;28;20251;-68
2022/10/20 03:46:22;;;;;;;1.70;0.90;;;;;;;7.51;79.28;102287.97;6289736;28;20233;-68
2022/10/20 03:49:43;;;;;;;1.80;1.70;;;;;;;7.52;79.51;102279.00;6292127;28;20234;-69
2022/10/20 03:53:04;;;;;;;1.33;0.90;;;;;;;7.49;79.33;102278.31;6276629;28;20525;-69
2022/10/20 03:56:25;;;;;;;6.73;1.60;;;;;;;7.49;79.43;102279.16;6283775;28;20243;-68
2022/10/20 03:59:46;;;;;;;1.23;0.90;;;;;;;7.49;79.23;102280.97;6283079;28;20305;-68
2022/10/20 04:03:08;;;;;;;1.33;1.23;;;;;;;7.40;79.87;102276.09;6289807;28;20223;-68
2022/10/20 04:06:30;;;;;;;1.20;0.93;;;;;;;7.37;79.76;102270.88;6285336;28;20231;-69
2022/10/20 04:09:51;;;;;;;1.70;1.60;;;;;;;7.49;79.25;102264.88;6288166;28;20318;-69
2022/10/20 04:13:12;;;;;;;4.87;4.47;;;;;;;7.42;80.12;102272.38;6288282;28;20631;-69
2022/10/20 04:16:32;;;;;;;2.03;1.80;;;;;;;7.17;80.53;102267.47;6281613;28;20227;-69
2022/10/20 04:19:55;;;;;;;1.53;1.17;;;;;;;7.24;80.38;102267.97;6270214;28;20341;-69
2022/10/20 04:23:16;;;;;;;1.40;1.30;;;;;;;7.32;80.15;102264.91;6285223;28;20598;-69
2022/10/20 04:26:37;;;;;;;4.00;1.50;;;;;;;7.32;80.74;102260.41;6278001;28;20234;-69
2022/10/20 04:29:57;;;;;;;1.77;1.23;;;;;;;7.35;79.83;102259.38;6283246;28;20254;-67
2022/10/20 04:33:18;;;;;;;2.03;1.60;;;;;;;7.29;79.95;102257.88;6287660;28;23239;-70
2022/10/20 04:36:40;;;;;;;1.77;1.67;;;;;;;7.24;80.17;102259.94;6278417;28;20523;-69
2022/10/20 04:40:01;;;;;;;2.13;1.27;;;;;;;7.10;81.29;102255.31;6274955;28;20222;-67
2022/10/20 04:43:22;;;;;;;2.60;1.30;;;;;;;7.20;81.22;102258.38;6284958;28;20234;-68
2022/10/20 04:46:43;;;;;;;1.23;1.13;;;;;;;7.24;80.65;102250.09;6286051;28;20659;-69
2022/10/20 04:50:05;;;;;;;1.60;1.40;;;;;;;7.28;81.19;102232.00;6285256;28;20234;-68
2022/10/20 04:53:27;;;;;;;3.03;1.70;;;;;;;7.21;81.02;102236.84;6280884;28;20504;-69
2022/10/20 04:56:48;;;;;;;3.40;1.40;;;;;;;7.16;81.09;102238.03;6288541;28;20317;-68
2022/10/20 05:00:10;;;;;;;2.20;1.40;;;;;;;7.20;81.32;102234.22;6287777;28;20313;-68
2022/10/20 05:03:31;;;;;;;1.60;1.50;;;;;;;7.13;81.18;102217.59;6283640;28;20223;-69
2022/10/20 05:06:52;;;;;;;2.97;1.63;;;;;;;7.09;81.08;102216.03;6275166;28;20238;-69
2022/10/20 05:10:14;;;;;;;1.60;1.50;;;;;;;7.02;81.94;102211.09;6275267;28;20310;-69
2022/10/20 05:13:35;;;;;;;1.73;1.17;;;;;;;6.85;82.02;102203.03;6271401;28;20230;-69
2022/10/20 05:16:56;;;;;;;2.93;1.10;;;;;;;6.96;82.55;102187.28;6273166;28;20233;-68
2022/10/20 05:20:17;;;;;;;2.00;1.90;;;;;;;7.03;81.54;102180.66;6270269;28;20877;-69
2022/10/20 05:23:39;;;;;;;1.93;1.43;;;;;;;7.01;81.94;102166.44;6284667;28;20231;-68
2022/10/20 05:27:01;;;;;;;3.03;1.60;;;;;;;6.97;82.03;102164.88;6279013;28;20300;-69
2022/10/20 05:30:22;;;;;;;1.40;1.30;;;;;;;6.89;82.27;102164.41;6284467;28;20590;-68
2022/10/20 05:33:45;;;;;;;1.23;1.13;;;;;;;6.92;82.15;102158.91;6290885;28;20227;-69
2022/10/20 05:37:06;;;;;;;1.67;1.57;;;;;;;6.94;82.38;102159.69;6277583;28;20361;-69
2022/10/20 05:40:27;;;;;;;1.70;1.60;;;;;;;6.95;82.18;102153.38;6272343;28;20234;-68
2022/10/20 05:43:49;;;;;;;1.33;1.23;;;;;;;7.02;81.88;102147.63;6287267;28;20230;-68
2022/10/20 05:47:10;;;;;;;2.20;1.77;;;;;;;7.04;81.75;102142.16;6274235;28;20247;-69
2022/10/20 05:50:31;;;;;;;4.63;1.70;;;;;;;7.07;81.93;102147.38;6277485;28;20590;-69
2022/10/20 05:53:54;;;;;;;1.60;1.50;;;;;;;6.96;82.40;102136.34;6277669;28;20231;-68
2022/10/20 05:57:15;;;;;;;2.10;1.90;;;;;;;6.98;82.63;102143.38;6269791;28;20914;-67
2022/10/20 06:00:40;;;;;;;5.97;2.23;;;;;;;7.01;82.61;102132.47;6277928;28;20226;-67
2022/10/20 06:04:08;;;;;;;4.77;2.63;;;;;;;6.98;82.23;102143.38;6275888;28;20226;-68
2022/10/20 06:07:29;;;;;;;1.80;1.70;;;;;;;6.82;83.82;102144.25;6281880;28;20226;-69
2022/10/20 06:10:50;;;;;;;3.60;1.67;;;;;;;6.86;83.31;102143.16;6273691;28;20464;-68
2022/10/20 06:14:11;;;;;;;2.07;1.97;;;;;;;6.98;83.05;102137.13;6280775;28;20238;-67
2022/10/20 06:17:33;;;;;;;2.33;2.03;;;;;;;7.06;83.01;102127.72;6276261;28;20230;-67
2022/10/20 06:20:59;;;;;;;1.83;1.70;;;;;;;7.06;83.45;102134.91;6278902;28;20223;-69
2022/10/20 06:24:20;;;;;;;1.70;1.60;;;;;;;7.17;82.53;102125.34;6281722;28;20592;-70
2022/10/20 06:27:43;;;;;;;9.27;1.73;;;;;;;7.16;83.53;102123.59;6275200;28;20266;-68
2022/10/20 06:31:10;;;;;;;3.23;2.90;;;;;;;7.21;83.03;102139.44;6277875;28;20500;-69
2022/10/20 06:34:33;;;;;;;2.23;1.60;;;;;;;7.33;83.03;102143.25;6260646;28;20536;-68
2022/10/20 06:37:54;;;;;;;2.20;2.00;;;;;;;7.45;82.53;102138.06;6262790;28;20230;-66
2022/10/20 06:41:16;;;;;;;3.83;1.40;;;;;;;7.65;82.74;102131.59;6261328;28;20099;-63
2022/10/20 06:44:38;;;;;;;1.67;1.52;;;;;;;7.75;81.56;102131.00;6273610;28;20986;-67
2022/10/20 06:47:59;;;;;;;2.10;1.90;;;;;;;8.01;82.14;102140.22;6282881;28;20235;-67
2022/10/20 06:51:22;;;;;;;5.67;2.03;;;;;;;8.16;81.75;102133.09;6280773;28;20238;-69
2022/10/20 06:54:42;;;;;;;3.50;1.67;;;;;;;8.39;81.71;102133.50;6287285;28;20238;-66
2022/10/20 06:58:03;;;;;;;2.20;1.77;;;;;;;8.53;80.38;102135.38;6290284;28;20250;-66
2022/10/20 07:01:26;;;;;;;1.43;1.30;;;;;;;8.73;80.03;102126.97;6291156;28;20218;-67
2022/10/20 07:04:49;;;;;;;3.80;2.37;;;;;;;8.62;80.85;102129.41;6295255;28;20758;-68
2022/10/20 07:08:11;;;;;;;1.73;1.10;;;;;;;8.73;79.41;102130.53;6283773;28;20333;-66
2022/10/20 07:11:32;;;;;;;1.40;1.30;;;;;;;8.70;79.56;102129.81;6280395;28;20227;-67
2022/10/20 07:14:53;;;;;;;5.17;1.53;;;;;;;8.99;79.69;102125.38;6282186;28;20320;-68
2022/10/20 07:18:14;;;;;;;1.20;1.10;;;;;;;9.01;79.48;102121.59;6283393;28;20862;-69
2022/10/20 07:21:35;;;;;;;1.47;1.37;;;;;;;9.18;78.95;102129.47;6275345;28;20326;-67
2022/10/20 07:24:58;;;;;;;1.13;1.03;;;;;;;9.05;78.79;102125.84;6275107;28;20246;-67
2022/10/20 07:28:20;;;;;;;2.67;1.60;;;;;;;9.39;79.24;102128.13;6283902;28;20227;-67
2022/10/20 07:31:43;;;;;;;4.67;2.43;;;;;;;9.50;78.22;102104.09;6267060;28;20227;-69
2022/10/20 07:35:05;;;;;;;1.90;1.67;;;;;;;9.27;78.06;102087.66;6278997;28;20905;-69
2022/10/20 07:38:26;;;;;;;2.43;1.40;;;;;;;9.51;77.80;102078.88;6275230;28;20511;-70
2022/10/20 07:41:48;;;;;;;5.50;4.30;;;;;;;9.66;76.97;102058.16;6272488;28;20227;-70
2022/10/20 07:45:10;;;;;;;1.27;1.23;;;;;;;9.49;77.73;102051.19;6278968;28;20243;-68
2022/10/20 07:48:32;;;;;;;2.23;1.40;;;;;;;9.41;77.73;102053.53;6279493;28;20220;-68
2022/10/20 07:51:52;;;;;;;1.17;1.00;;;;;;;9.63;77.70;102050.31;6277128;28;20230;-66
2022/10/20 07:55:13;;;;;;;1.43;1.37;;;;;;;9.58;77.75;102064.06;6287438;28;20226;-69
2022/10/20 07:58:36;;;;;;;1.57;1.47;;;;;;;9.76;77.08;102058.44;6283498;28;20227;-72
2022/10/20 08:01:57;;;;;;;1.50;1.40;;;;;;;9.82;76.21;102055.31;6281799;28;20221;-70
2022/10/20 08:05:17;;;;;;;2.03;1.50;;;;;;;9.89;76.16;102040.50;6286049;28;20233;-68
2022/10/20 08:08:38;;;;;;;1.13;1.03;;;;;;;9.90;75.46;102040.38;6282891;28;20236;-68
2022/10/20 08:11:59;;;;;;;1.60;0.93;;;;;;;10.13;74.68;102033.47;6269088;28;20222;-68
2022/10/20 08:15:21;;;;;;;1.20;1.10;;;;;;;10.18;74.36;102017.84;6276202;28;20294;-69
2022/10/20 08:18:42;;;;;;;1.80;1.70;;;;;;;10.22;74.18;102014.81;6280312;28;20713;-68
2022/10/20 08:22:03;;;;;;;1.73;1.63;;;;;;;10.21;74.46;102021.19;6290431;28;20227;-68
2022/10/20 08:25:25;;;;;;;2.93;1.60;;;;;;;10.43;73.79;102009.75;6264252;28;20326;-69
2022/10/20 08:28:45;;;;;;;1.53;1.10;;;;;;;10.18;74.26;102005.22;6293686;28;20239;-69
2022/10/20 08:32:09;;;;;;;1.33;1.23;;;;;;;10.42;73.26;101999.97;6284509;28;20636;-70
2022/10/20 08:35:29;;;;;;;1.33;1.23;;;;;;;10.60;72.84;101982.47;6288078;28;20593;-72
2022/10/20 08:38:50;;;;;;;2.47;1.30;;;;;;;10.63;73.04;101971.50;6296995;28;20234;-70
2022/10/20 08:42:11;;;;;;;0.83;0.83;;;;;;;10.71;72.08;101973.63;6288992;28;20238;-68
2022/10/20 08:45:34;;;;;;;1.47;1.47;;;;;;;10.57;72.38;101974.63;6291330;28;20235;-68
2022/10/20 08:48:57;;;;;;;1.43;1.43;;;;;;;10.58;71.88;101967.38;6288760;28;20230;-71
2022/10/20 08:52:21;;;;;;;9.57;2.60;;;;;;;11.15;69.94;101955.06;6280646;28;20223;-69
2022/10/20 08:55:44;;;;;;;2.73;1.20;;;;;;;10.78;71.25;101946.13;6289412;28;20234;-72
2022/10/20 08:59:23;;;;;;;3.97;1.20;;;;;;;11.41;69.41;101951.28;6286512;28;20234;-70
2022/10/20 09:02:44;;;;;;;1.80;1.63;;;;;;;11.41;67.92;101963.94;6289259;28;20235;-67
2022/10/20 09:06:12;;;;;;;1.03;0.93;;;;;;;11.73;67.90;101947.03;6274359;28;20234;-69
2022/10/20 09:09:33;;;;;;;3.20;1.33;;;;;;;12.22;65.70;101941.41;6272806;28;20242;-69
2022/10/20 09:12:54;;;;;;;2.83;1.57;;;;;;;12.20;65.55;101939.81;6283659;28;20265;-72
2022/10/20 09:16:23;;;;;;;1.63;1.00;;;;;;;12.91;63.38;101934.91;6285447;28;20234;-70
2022/10/20 09:19:48;;;;;;;1.50;1.40;;;;;;;13.77;59.17;101927.59;6266648;28;20238;-72
2022/10/20 09:23:13;;;;;;;3.23;1.07;;;;;;;14.02;58.32;101918.22;6288422;28;20842;-69
2022/10/20 09:26:36;;;;;;;1.20;1.10;;;;;;;13.74;59.32;101916.19;6282864;28;20320;-68
2022/10/20 09:29:57;;;;;;;4.03;2.23;;;;;;;13.35;60.61;101913.13;6253860;28;20234;-70
2022/10/20 09:33:21;;;;;;;1.50;1.03;;;;;;;15.93;54.02;101900.66;6292662;28;20325;-72
2022/10/20 09:36:43;;;;;;;1.73;0.80;;;;;;;17.61;48.80;101880.34;6282992;28;20682;-70
2022/10/20 09:40:15;;;;;;;1.52;1.42;;;;;;;18.53;46.16;101876.91;6279552;28;20240;-73
2022/10/20 09:43:39;;;;;;;1.08;0.98;;;;;;;17.42;47.21;101887.59;6282599;28;21977;-73
2022/10/20 09:47:01;;;;;;;3.00;0.93;;;;;;;18.06;46.86;101895.53;6285426;28;20239;-69
2022/10/20 09:50:26;;;;;;;1.55;1.13;;;;;;;19.44;42.84;101908.00;6287468;28;20675;-69
2022/10/20 09:53:52;;;;;;;3.65;0.90;;;;;;;17.73;46.88;101907.19;6282640;28;20308;-71
2022/10/20 09:57:19;;;;;;;1.08;0.90;;;;;;;19.36;43.15;101897.06;6282912;28;20989;-71
2022/10/20 10:00:45;;;;;;;1.17;0.90;;;;;;;20.57;39.75;101898.69;6287600;28;20230;-69
2022/10/20 10:04:32;;;;;;;1.95;0.88;;;;;;;21.99;37.71;101881.75;6288738;28;20254;-68
2022/10/20 10:07:59;;;;;;;1.15;1.10;;;;;;;23.00;36.46;101871.00;6257855;28;20234;-70
2022/10/20 10:11:23;;;;;;;1.77;1.33;;;;;;;20.94;39.57;101878.88;6290337;28;20230;-72
2022/10/20 10:14:52;;;;;;;1.42;1.02;;;;;;;20.04;40.81;101890.22;6283169;28;20341;-70
2022/10/20 10:18:21;;;;;;;1.02;0.80;;;;;;;20.35;40.72;101885.75;6277766;28;20221;-75
2022/10/20 10:21:45;;;;;;;1.05;0.95;;;;;;;20.12;40.17;101875.66;6283569;28;20241;-69
2022/10/20 10:25:14;;;;;;;1.13;1.02;;;;;;;22.07;36.90;101875.34;6268685;28;20940;-68
2022/10/20 10:28:37;;;;;;;5.32;1.98;;;;;;;21.58;38.67;101849.31;6282732;28;20229;-69
2022/10/20 10:32:02;;;;;;;2.45;1.08;;;;;;;23.90;34.05;101835.53;6284692;28;20309;-68
2022/10/20 10:35:27;;;;;;;0.85;0.85;;;;;;;25.66;31.25;101819.81;6286902;28;20263;-68
2022/10/20 10:38:48;;;;;;;1.73;0.90;;;;;;;26.16;29.69;101823.84;6285940;28;20258;-69
2022/10/20 10:42:35;;;;;;;1.48;1.10;;;;;;;25.48;31.07;101814.06;6258893;28;20226;-68
2022/10/20 10:45:58;;;;;;;1.17;1.08;;;;;;;28.40;28.19;101803.75;6285057;28;20222;-69
2022/10/20 10:49:37;;;;;;;2.65;1.45;;;;;;;26.25;29.51;101799.59;6289910;28;20620;-69
2022/10/20 10:53:26;;;;;;;2.38;2.17;;;;;;;24.30;32.08;101807.22;6282652;28;20817;-68
2022/10/20 10:56:49;;;;;;;0.98;0.90;;;;;;;25.31;31.11;101782.38;6272803;28;20238;-69
2022/10/20 11:00:19;;;;;;;0.55;0.55;;;;;;;20.19;39.96;101797.28;6283081;28;20239;-70
2022/10/20 11:03:56;;;;;;;1.48;0.73;;;;;;;22.18;36.84;101784.22;6288130;28;20320;-69
2022/10/20 11:07:29;;;;;;;1.55;1.25;;;;;;;21.61;37.38;101767.44;6288179;28;20234;-69
2022/10/20 11:11:00;;;;;;;4.13;1.10;;;;;;;26.00;30.80;101755.16;6271810;28;20238;-68
2022/10/20 11:14:32;;;;;;;1.67;0.90;;;;;;;26.46;29.55;101750.38;6268239;28;20231;-70
2022/10/20 11:17:57;;;;;;;0.88;0.88;;;;;;;26.99;28.56;101739.09;6275924;28;20234;-69
2022/10/20 11:21:28;;;;;;;1.63;1.52;;;;;;;26.40;28.99;101733.81;6278800;28;20572;-70
2022/10/20 11:24:58;;;;;;;0.80;0.68;;;;;;;27.85;28.50;101727.09;6279039;28;20320;-73
2022/10/20 11:28:29;;;;;;;0.70;0.70;;;;;;;24.84;34.27;101730.91;6283186;28;20534;-72
2022/10/20 11:31:54;;;;;;;2.55;1.15;;;;;;;23.93;33.49;101725.75;6285958;28;20334;-70
2022/10/20 11:35:24;;;;;;;1.20;1.10;;;;;;;19.91;41.01;101717.44;6285714;28;20623;-70
2022/10/20 11:38:50;;;;;;;3.65;1.95;;;;;;;20.99;38.99;101722.00;6275284;28;20242;-73
2022/10/20 11:42:24;;;;;;;1.92;1.80;;;;;;;20.52;39.61;101703.00;6279106;28;20321;-69
2022/10/20 11:45:51;;;;;;;1.05;0.73;;;;;;;20.90;37.89;101701.19;6288295;28;20239;-68
2022/10/20 11:49:12;;;;;;;0.80;0.80;;;;;;;24.51;32.59;101694.09;6283264;28;20231;-71
2022/10/20 11:53:08;;;;;;;1.50;1.40;;;;;;;26.48;29.68;101692.06;6291267;28;20223;-69
2022/10/20 11:56:56;;;;;;;1.85;1.23;;;;;;;24.46;31.99;101700.22;6284439;28;20600;-71
2022/10/20 12:00:30;;;;;;;1.98;1.25;;;;;;;22.28;36.47;101696.84;6287901;28;20234;-69
2022/10/20 12:04:15;;;;;;;1.58;1.40;;;;;;;21.87;37.06;101696.53;6290770;28;20518;-69
2022/10/20 12:07:59;;;;;;;1.67;1.50;;;;;;;24.25;32.61;101666.41;6299606;28;20235;-68
2022/10/20 12:11:29;;;;;;;2.10;1.10;;;;;;;23.16;34.51;101667.13;6283417;28;20226;-70
2022/10/20 12:14:56;;;;;;;0.98;0.98;;;;;;;23.48;34.85;101661.09;6267738;28;20665;-70
2022/10/20 12:18:25;;;;;;;2.20;1.30;;;;;;;21.39;37.75;101642.13;6285394;28;20224;-68
2022/10/20 12:21:57;;;;;;;1.60;1.50;;;;;;;21.11;40.29;101652.03;6288883;28;20615;-69
2022/10/20 12:25:34;;;;;;;1.40;1.30;;;;;;;19.99;42.56;101639.91;6294762;28;20235;-69
2022/10/20 12:28:55;;;;;;;1.98;1.40;;;;;;;19.31;43.78;101618.59;6300079;28;20497;-69
2022/10/20 12:32:25;;;;;;;3.38;1.70;;;;;;;17.08;48.92;101613.25;6285024;28;20242;-68
2022/10/20 12:36:31;;;;;;;1.88;1.77;;;;;;;17.40;48.83;101607.97;6287524;28;20258;-69
2022/10/20 12:39:54;;;;;;;1.33;1.23;;;;;;;18.14;47.03;101606.28;6285590;28;20222;-69
2022/10/20 12:43:28;;;;;;;2.75;1.77;;;;;;;16.57;50.17;101605.88;6292208;28;20230;-69
2022/10/20 12:46:54;;;;;;;2.95;1.58;;;;;;;17.93;47.79;101588.63;6287452;28;20226;-70
2022/10/20 12:50:28;;;;;;;2.42;1.20;;;;;;;17.60;47.74;101582.22;6276121;28;20227;-69
2022/10/20 12:53:59;;;;;;;2.67;2.03;;;;;;;17.25;48.05;101568.75;6294318;28;20219;-68
2022/10/20 12:57:30;;;;;;;1.95;1.85;;;;;;;17.35;48.51;101558.56;6286727;28;20231;-69
2022/10/20 13:01:05;;;;;;;2.38;1.30;;;;;;;17.28;49.16;101560.22;6291036;28;20242;-71
2022/10/20 13:04:52;;;;;;;2.85;2.53;;;;;;;16.72;49.94;101558.88;6297600;28;20238;-70
2022/10/20 13:08:29;;;;;;;2.83;1.83;;;;;;;17.57;48.98;101544.38;6301269;28;20338;-69
2022/10/20 13:11:58;;;;;;;1.52;1.42;;;;;;;17.65;48.76;101543.56;6302517;28;20294;-69
2022/10/20 13:15:22;;;;;;;2.15;1.52;;;;;;;17.89;48.18;101538.16;6291633;28;20225;-73
2022/10/20 13:18:48;;;;;;;1.05;1.05;;;;;;;17.63;48.97;101540.97;6289645;28;20616;-69
2022/10/20 13:22:36;;;;;;;1.45;1.35;;;;;;;16.91;50.34;101536.00;6290204;28;20235;-69
2022/10/20 13:25:59;;;;;;;1.40;1.30;;;;;;;16.91;50.21;101540.59;6283758;28;20234;-70
2022/10/20 13:29:26;;;;;;;9.35;3.17;;;;;;;16.47;51.19;101542.47;6265180;28;20254;-70
2022/10/20 13:32:58;;;;;;;1.63;1.52;;;;;;;16.64;50.64;101547.06;6270335;28;20876;-69
2022/10/20 13:36:27;;;;;;;2.83;1.57;;;;;;;16.82;50.56;101517.91;6264181;28;20250;-70
2022/10/20 13:39:57;;;;;;;1.95;1.35;;;;;;;16.67;50.78;101520.34;6262912;28;20233;-69
2022/10/20 13:43:29;;;;;;;2.95;1.70;;;;;;;17.03;50.17;101506.63;6261991;28;20724;-71
2022/10/20 13:47:00;;;;;;;2.40;1.60;;;;;;;17.10;49.89;101499.50;6259275;28;20230;-68
2022/10/20 13:50:26;;;;;;;2.28;2.08;;;;;;;16.93;49.59;101512.19;6269875;28;20591;-70
2022/10/20 13:53:51;;;;;;;1.57;1.47;;;;;;;16.34;50.01;101518.38;6259363;28;20356;-70
2022/10/20 13:57:25;;;;;;;1.70;1.50;;;;;;;15.41;52.41;101522.47;6277508;28;21107;-70
2022/10/20 14:00:56;;;;;;;1.97;1.70;;;;;;;15.69;51.91;101516.91;6284550;28;20230;-69
2022/10/20 14:04:27;;;;;;;1.70;1.50;;;;;;;16.18;51.19;101506.50;6286145;28;20235;-70
2022/10/20 14:07:49;;;;;;;3.17;1.60;;;;;;;16.24;50.23;101500.44;6273690;28;20246;-70
2022/10/20 14:11:11;;;;;;;2.00;1.63;;;;;;;16.53;48.52;101503.75;6268820;28;20235;-70
2022/10/20 14:14:33;;;;;;;4.10;2.27;;;;;;;16.50;48.63;101501.38;6270904;28;20223;-69
2022/10/20 14:17:56;;;;;;;1.77;1.20;;;;;;;17.55;46.26;101495.47;6275150;28;20632;-70
2022/10/20 14:21:19;;;;;;;1.83;1.23;;;;;;;17.96;49.71;101495.56;6278975;28;20524;-69
2022/10/20 14:24:43;;;;;;;1.63;1.33;;;;;;;18.26;45.60;101492.13;6271187;28;20697;-65
2022/10/20 14:28:04;;;;;;;1.63;1.53;;;;;;;17.22;46.27;101477.25;6288719;28;20313;-66
2022/10/20 14:31:26;;;;;;;2.93;1.27;;;;;;;16.55;49.24;101485.38;6284507;28;20222;-65
2022/10/20 14:34:55;;;;;;;2.63;1.50;;;;;;;16.28;51.19;101485.50;6289813;28;20571;-66
2022/10/20 14:38:20;;;;;;;1.20;1.10;;;;;;;16.36;54.70;101470.09;6275561;28;20640;-66
2022/10/20 14:41:46;;;;;;;2.80;1.90;;;;;;;15.52;53.36;101474.22;6267750;28;20234;-67
2022/10/20 14:45:17;;;;;;;2.40;2.20;;;;;;;15.18;55.67;101471.28;6279332;28;20354;-66
2022/10/20 14:48:42;;;;;;;3.37;2.33;;;;;;;14.98;57.32;101458.78;6277205;28;20223;-66
2022/10/20 14:52:18;;;;;;;3.90;2.10;;;;;;;15.14;56.00;101463.59;6281685;28;20322;-67
2022/10/20 14:55:40;;;;;;;2.10;2.00;;;;;;;14.48;56.94;101446.56;6281746;28;20528;-66
2022/10/20 14:59:02;;;;;;;4.27;2.27;;;;;;;14.61;57.04;101443.50;6282738;28;20481;-67
2022/10/20 15:02:26;;;;;;;1.53;1.43;;;;;;;14.69;58.98;101435.47;6277256;28;20636;-66
2022/10/20 15:05:52;;;;;;;2.17;1.97;;;;;;;14.55;60.76;101447.69;6282312;28;20231;-67
2022/10/20 15:09:30;;;;;;;2.93;2.10;;;;;;;14.40;60.08;101443.72;6279848;28;20230;-66
2022/10/20 15:12:54;;;;;;;1.73;1.63;;;;;;;14.18;58.83;101442.19;6256697;28;20231;-67
2022/10/20 15:16:34;;;;;;;2.00;1.80;;;;;;;13.97;62.14;101452.34;6287923;28;20226;-66
2022/10/20 15:19:55;;;;;;;2.30;1.67;;;;;;;13.92;61.10;101470.03;6291515;28;20230;-66
2022/10/20 15:23:17;;;;;;;2.53;1.80;;;;;;;14.18;65.95;101468.44;6286846;28;20279;-66
2022/10/20 15:26:38;;;;;;;3.27;1.90;;;;;;;14.56;62.73;101475.69;6280720;28;20607;-66
2022/10/20 15:30:00;;;;;;;1.93;1.73;;;;;;;14.73;60.74;101472.19;6291999;28;20321;-66
2022/10/20 15:33:21;;;;;;;1.73;1.63;;;;;;;14.27;60.02;101463.00;6295046;28;20223;-66
2022/10/20 15:36:41;;;;;;;2.40;2.20;;;;;;;14.01;60.07;101469.16;6296438;28;20233;-65
2022/10/20 15:40:03;;;;;;;1.90;1.80;;;;;;;13.85;62.17;101450.75;6288578;28;21713;-67
2022/10/20 15:43:24;;;;;;;3.33;2.13;;;;;;;13.68;60.01;101447.91;6285451;28;20549;-67
2022/10/20 15:46:46;;;;;;;2.13;2.03;;;;;;;13.48;60.78;101449.75;6291891;28;20227;-67
2022/10/20 15:50:08;;;;;;;2.63;2.20;;;;;;;13.37;61.38;101448.03;6286369;28;20231;-67
2022/10/20 15:53:29;;;;;;;2.67;2.10;;;;;;;13.43;61.56;101443.91;6290504;28;20322;-68
2022/10/20 15:56:50;;;;;;;4.80;2.17;;;;;;;13.58;59.90;101453.31;6294807;28;20294;-70
2022/10/20 16:00:12;;;;;;;4.47;1.87;;;;;;;13.17;61.21;101457.09;6275161;28;20530;-70